sensor_id;sensor_type;location;lat;lon;timestamp;P1;durP1;ratioP1;P2;durP2;ratioP2
75894;SDS011;64573;50.328;15.014;2023-07-20T00:01:03;2.67;;;1.40;;
75894;SDS011;64573;50.328;15.014;2023-07-20T00:03:29;2.50;;;1.30;;
75894;SDS011;64573;50.328;15.014;2023-07-20T00:05:54;2.92;;;1.38;;
75894;SDS011;64573;50.328;15.014;2023-07-20T00:08:20;1.67;;;1.27;;
75894;SDS011;64573;50.328;15.014;2023-07-20T00:10:45;1.63;;;1.05;;
75894;SDS011;64573;50.328;15.014;2023-07-20T00:13:11;3.03;;;1.40;;
75894;SDS011;64573;50.328;15.014;2023-07-20T00:15:36;1.55;;;1.10;;
75894;SDS011;64573;50.328;15.014;2023-07-20T00:18:02;1.83;;;1.48;;
75894;SDS011;64573;50.328;15.014;2023-07-20T00:20:30;2.97;;;1.23;;
75894;SDS011;64573;50.328;15.014;2023-07-20T00:22:56;2.42;;;1.40;;
75894;SDS011;64573;50.328;15.014;2023-07-20T00:25:22;2.10;;;1.27;;
75894;SDS011;64573;50.328;15.014;2023-07-20T00:27:48;2.00;;;1.33;;
75894;SDS011;64573;50.328;15.014;2023-07-20T00:30:13;1.70;;;1.30;;
75894;SDS011;64573;50.328;15.014;2023-07-20T00:32:39;1.40;;;1.25;;
75894;SDS011;64573;50.328;15.014;2023-07-20T00:35:04;3.78;;;1.45;;
75894;SDS011;64573;50.328;15.014;2023-07-20T00:37:30;1.85;;;1.45;;
75894;SDS011;64573;50.328;15.014;2023-07-20T00:39:55;2.67;;;1.52;;
75894;SDS011;64573;50.328;15.014;2023-07-20T00:42:21;2.65;;;1.50;;
75894;SDS011;64573;50.328;15.014;2023-07-20T00:44:47;1.77;;;1.45;;
75894;SDS011;64573;50.328;15.014;2023-07-20T00:47:12;2.65;;;1.50;;
75894;SDS011;64573;50.328;15.014;2023-07-20T00:49:37;2.35;;;1.58;;
75894;SDS011;64573;50.328;15.014;2023-07-20T00:52:05;2.13;;;1.67;;
75894;SDS011;64573;50.328;15.014;2023-07-20T00:54:32;3.30;;;1.70;;
75894;SDS011;64573;50.328;15.014;2023-07-20T00:56:58;2.13;;;1.60;;
75894;SDS011;64573;50.328;15.014;2023-07-20T00:59:25;5.38;;;1.90;;
75894;SDS011;64573;50.328;15.014;2023-07-20T01:01:51;3.15;;;1.90;;
75894;SDS011;64573;50.328;15.014;2023-07-20T01:04:17;2.40;;;1.70;;
75894;SDS011;64573;50.328;15.014;2023-07-20T01:06:49;2.85;;;1.60;;
75894;SDS011;64573;50.328;15.014;2023-07-20T01:14:54;6.45;;;1.80;;
75894;SDS011;64573;50.328;15.014;2023-07-20T01:17:19;4.70;;;2.00;;
75894;SDS011;64573;50.328;15.014;2023-07-20T01:19:45;2.63;;;1.70;;
75894;SDS011;64573;50.328;15.014;2023-07-20T01:28:13;1.85;;;1.60;;
75894;SDS011;64573;50.328;15.014;2023-07-20T01:30:55;3.33;;;1.88;;
75894;SDS011;64573;50.328;15.014;2023-07-20T01:33:21;3.45;;;1.90;;
75894;SDS011;64573;50.328;15.014;2023-07-20T01:35:57;3.55;;;1.77;;
75894;SDS011;64573;50.328;15.014;2023-07-20T01:38:24;1.92;;;1.70;;
75894;SDS011;64573;50.328;15.014;2023-07-20T01:40:50;3.17;;;1.92;;
75894;SDS011;64573;50.328;15.014;2023-07-20T01:43:17;3.17;;;1.83;;
75894;SDS011;64573;50.328;15.014;2023-07-20T01:45:42;3.00;;;2.08;;
75894;SDS011;64573;50.328;15.014;2023-07-20T01:48:08;3.15;;;2.00;;
75894;SDS011;64573;50.328;15.014;2023-07-20T01:50:34;4.57;;;1.98;;
75894;SDS011;64573;50.328;15.014;2023-07-20T01:52:59;2.70;;;1.85;;
75894;SDS011;64573;50.328;15.014;2023-07-20T01:55:25;4.63;;;2.08;;
75894;SDS011;64573;50.328;15.014;2023-07-20T01:57:50;3.67;;;2.08;;
75894;SDS011;64573;50.328;15.014;2023-07-20T02:00:16;2.70;;;1.88;;
75894;SDS011;64573;50.328;15.014;2023-07-20T02:02:44;3.92;;;1.92;;
75894;SDS011;64573;50.328;15.014;2023-07-20T02:05:09;2.25;;;1.85;;
75894;SDS011;64573;50.328;15.014;2023-07-20T02:07:34;2.75;;;1.70;;
75894;SDS011;64573;50.328;15.014;2023-07-20T02:10:00;3.35;;;2.10;;
75894;SDS011;64573;50.328;15.014;2023-07-20T02:12:25;2.20;;;1.65;;
75894;SDS011;64573;50.328;15.014;2023-07-20T02:14:50;2.90;;;1.80;;
75894;SDS011;64573;50.328;15.014;2023-07-20T02:17:16;2.30;;;1.90;;
75894;SDS011;64573;50.328;15.014;2023-07-20T02:19:41;2.85;;;2.00;;
75894;SDS011;64573;50.328;15.014;2023-07-20T02:22:07;2.42;;;1.80;;
75894;SDS011;64573;50.328;15.014;2023-07-20T02:24:33;2.35;;;1.75;;
75894;SDS011;64573;50.328;15.014;2023-07-20T02:26:59;3.15;;;1.80;;
75894;SDS011;64573;50.328;15.014;2023-07-20T02:29:24;3.72;;;2.10;;
75894;SDS011;64573;50.328;15.014;2023-07-20T02:31:50;2.97;;;1.75;;
75894;SDS011;64573;50.328;15.014;2023-07-20T02:34:15;4.10;;;2.00;;
75894;SDS011;64573;50.328;15.014;2023-07-20T02:36:40;4.40;;;2.20;;
75894;SDS011;64573;50.328;15.014;2023-07-20T02:39:07;3.10;;;1.98;;
75894;SDS011;64573;50.328;15.014;2023-07-20T02:41:33;2.33;;;1.95;;
75894;SDS011;64573;50.328;15.014;2023-07-20T02:43:59;2.42;;;2.00;;
75894;SDS011;64573;50.328;15.014;2023-07-20T02:46:25;3.55;;;2.20;;
75894;SDS011;64573;50.328;15.014;2023-07-20T02:48:50;4.55;;;2.00;;
75894;SDS011;64573;50.328;15.014;2023-07-20T02:51:16;5.28;;;2.22;;
75894;SDS011;64573;50.328;15.014;2023-07-20T02:53:41;4.53;;;2.20;;
75894;SDS011;64573;50.328;15.014;2023-07-20T02:56:07;3.63;;;2.17;;
75894;SDS011;64573;50.328;15.014;2023-07-20T02:58:34;3.25;;;2.08;;
75894;SDS011;64573;50.328;15.014;2023-07-20T03:01:02;2.95;;;2.10;;
75894;SDS011;64573;50.328;15.014;2023-07-20T03:03:34;5.65;;;2.25;;
75894;SDS011;64573;50.328;15.014;2023-07-20T03:06:06;7.18;;;2.40;;
75894;SDS011;64573;50.328;15.014;2023-07-20T03:08:34;3.25;;;2.00;;
75894;SDS011;64573;50.328;15.014;2023-07-20T03:11:00;3.47;;;1.98;;
75894;SDS011;64573;50.328;15.014;2023-07-20T03:13:26;3.13;;;1.95;;
75894;SDS011;64573;50.328;15.014;2023-07-20T03:15:52;3.28;;;2.00;;
75894;SDS011;64573;50.328;15.014;2023-07-20T03:18:17;4.40;;;2.10;;
75894;SDS011;64573;50.328;15.014;2023-07-20T03:20:43;4.25;;;2.00;;
75894;SDS011;64573;50.328;15.014;2023-07-20T03:23:08;3.90;;;2.15;;
75894;SDS011;64573;50.328;15.014;2023-07-20T03:25:34;3.72;;;1.83;;
75894;SDS011;64573;50.328;15.014;2023-07-20T03:27:59;2.58;;;2.00;;
75894;SDS011;64573;50.328;15.014;2023-07-20T03:30:24;3.30;;;2.10;;
75894;SDS011;64573;50.328;15.014;2023-07-20T03:32:50;2.63;;;1.95;;
75894;SDS011;64573;50.328;15.014;2023-07-20T03:35:16;6.15;;;2.40;;
75894;SDS011;64573;50.328;15.014;2023-07-20T03:37:41;4.78;;;2.30;;
75894;SDS011;64573;50.328;15.014;2023-07-20T03:40:07;2.70;;;2.03;;
75894;SDS011;64573;50.328;15.014;2023-07-20T03:42:33;2.78;;;2.05;;
75894;SDS011;64573;50.328;15.014;2023-07-20T03:44:58;5.78;;;2.13;;
75894;SDS011;64573;50.328;15.014;2023-07-20T03:47:23;4.80;;;2.30;;
75894;SDS011;64573;50.328;15.014;2023-07-20T03:49:49;4.15;;;1.90;;
75894;SDS011;64573;50.328;15.014;2023-07-20T03:52:14;3.70;;;1.98;;
75894;SDS011;64573;50.328;15.014;2023-07-20T03:54:40;3.85;;;1.88;;
75894;SDS011;64573;50.328;15.014;2023-07-20T03:57:05;4.00;;;2.13;;
75894;SDS011;64573;50.328;15.014;2023-07-20T03:59:30;4.05;;;2.10;;
75894;SDS011;64573;50.328;15.014;2023-07-20T04:01:56;3.50;;;2.00;;
75894;SDS011;64573;50.328;15.014;2023-07-20T04:04:21;3.88;;;2.00;;
75894;SDS011;64573;50.328;15.014;2023-07-20T04:06:46;4.88;;;1.80;;
75894;SDS011;64573;50.328;15.014;2023-07-20T04:09:12;4.38;;;1.67;;
75894;SDS011;64573;50.328;15.014;2023-07-20T04:11:38;4.25;;;1.88;;
75894;SDS011;64573;50.328;15.014;2023-07-20T04:14:03;4.50;;;1.90;;
75894;SDS011;64573;50.328;15.014;2023-07-20T04:16:29;4.20;;;1.80;;
75894;SDS011;64573;50.328;15.014;2023-07-20T04:18:55;9.63;;;2.05;;
75894;SDS011;64573;50.328;15.014;2023-07-20T04:21:21;3.60;;;1.95;;
75894;SDS011;64573;50.328;15.014;2023-07-20T04:23:47;3.58;;;1.70;;
75894;SDS011;64573;50.328;15.014;2023-07-20T04:26:13;3.63;;;1.55;;
75894;SDS011;64573;50.328;15.014;2023-07-20T04:28:40;5.43;;;2.03;;
75894;SDS011;64573;50.328;15.014;2023-07-20T04:31:13;3.28;;;2.00;;
75894;SDS011;64573;50.328;15.014;2023-07-20T04:33:39;3.97;;;2.08;;
75894;SDS011;64573;50.328;15.014;2023-07-20T04:36:05;4.88;;;2.10;;
75894;SDS011;64573;50.328;15.014;2023-07-20T04:38:31;3.47;;;2.13;;
75894;SDS011;64573;50.328;15.014;2023-07-20T04:40:56;3.60;;;2.25;;
75894;SDS011;64573;50.328;15.014;2023-07-20T04:43:22;3.40;;;1.90;;
75894;SDS011;64573;50.328;15.014;2023-07-20T04:45:47;3.30;;;1.98;;
75894;SDS011;64573;50.328;15.014;2023-07-20T04:48:13;4.43;;;2.20;;
75894;SDS011;64573;50.328;15.014;2023-07-20T04:50:40;4.28;;;2.03;;
75894;SDS011;64573;50.328;15.014;2023-07-20T04:53:07;2.70;;;2.05;;
75894;SDS011;64573;50.328;15.014;2023-07-20T04:55:35;3.03;;;2.17;;
75894;SDS011;64573;50.328;15.014;2023-07-20T04:58:02;4.88;;;2.00;;
75894;SDS011;64573;50.328;15.014;2023-07-20T05:00:28;3.63;;;2.00;;
75894;SDS011;64573;50.328;15.014;2023-07-20T05:02:54;3.53;;;2.30;;
75894;SDS011;64573;50.328;15.014;2023-07-20T05:05:19;3.15;;;2.30;;
75894;SDS011;64573;50.328;15.014;2023-07-20T05:07:45;4.43;;;2.50;;
75894;SDS011;64573;50.328;15.014;2023-07-20T05:10:10;5.97;;;2.30;;
75894;SDS011;64573;50.328;15.014;2023-07-20T05:12:36;3.35;;;2.33;;
75894;SDS011;64573;50.328;15.014;2023-07-20T05:15:01;6.05;;;2.38;;
75894;SDS011;64573;50.328;15.014;2023-07-20T05:17:28;2.42;;;2.10;;
75894;SDS011;64573;50.328;15.014;2023-07-20T05:19:53;3.53;;;2.08;;
75894;SDS011;64573;50.328;15.014;2023-07-20T05:22:19;3.55;;;2.13;;
75894;SDS011;64573;50.328;15.014;2023-07-20T05:24:44;3.60;;;1.80;;
75894;SDS011;64573;50.328;15.014;2023-07-20T05:27:10;4.18;;;2.00;;
75894;SDS011;64573;50.328;15.014;2023-07-20T05:29:35;2.33;;;1.80;;
75894;SDS011;64573;50.328;15.014;2023-07-20T05:32:00;2.00;;;1.80;;
75894;SDS011;64573;50.328;15.014;2023-07-20T05:34:26;4.95;;;2.10;;
75894;SDS011;64573;50.328;15.014;2023-07-20T05:36:51;7.55;;;2.05;;
75894;SDS011;64573;50.328;15.014;2023-07-20T05:39:16;3.80;;;1.70;;
75894;SDS011;64573;50.328;15.014;2023-07-20T05:41:43;3.50;;;2.10;;
75894;SDS011;64573;50.328;15.014;2023-07-20T05:44:08;6.47;;;1.80;;
75894;SDS011;64573;50.328;15.014;2023-07-20T05:46:33;3.28;;;2.03;;
75894;SDS011;64573;50.328;15.014;2023-07-20T05:48:59;3.22;;;1.85;;
75894;SDS011;64573;50.328;15.014;2023-07-20T05:51:25;2.13;;;1.60;;
75894;SDS011;64573;50.328;15.014;2023-07-20T05:53:50;4.53;;;1.50;;
75894;SDS011;64573;50.328;15.014;2023-07-20T05:56:15;2.33;;;1.48;;
75894;SDS011;64573;50.328;15.014;2023-07-20T05:58:41;5.75;;;1.60;;
75894;SDS011;64573;50.328;15.014;2023-07-20T06:01:07;2.15;;;1.13;;
75894;SDS011;64573;50.328;15.014;2023-07-20T06:03:32;3.20;;;1.20;;
75894;SDS011;64573;50.328;15.014;2023-07-20T06:06:02;2.40;;;1.27;;
75894;SDS011;64573;50.328;15.014;2023-07-20T06:08:29;2.25;;;1.40;;
75894;SDS011;64573;50.328;15.014;2023-07-20T06:10:54;1.30;;;1.20;;
75894;SDS011;64573;50.328;15.014;2023-07-20T06:13:20;2.72;;;1.33;;
75894;SDS011;64573;50.328;15.014;2023-07-20T06:15:45;1.40;;;1.05;;
75894;SDS011;64573;50.328;15.014;2023-07-20T06:18:10;2.72;;;1.20;;
75894;SDS011;64573;50.328;15.014;2023-07-20T06:20:36;1.10;;;1.00;;
75894;SDS011;64573;50.328;15.014;2023-07-20T06:23:01;3.80;;;1.20;;
75894;SDS011;64573;50.328;15.014;2023-07-20T06:25:27;2.10;;;1.15;;
75894;SDS011;64573;50.328;15.014;2023-07-20T06:27:52;2.17;;;1.27;;
75894;SDS011;64573;50.328;15.014;2023-07-20T06:30:18;2.03;;;1.33;;
75894;SDS011;64573;50.328;15.014;2023-07-20T06:32:44;2.58;;;1.05;;
75894;SDS011;64573;50.328;15.014;2023-07-20T06:35:09;2.42;;;1.45;;
75894;SDS011;64573;50.328;15.014;2023-07-20T06:37:35;2.63;;;1.50;;
75894;SDS011;64573;50.328;15.014;2023-07-20T06:40:01;3.25;;;1.40;;
75894;SDS011;64573;50.328;15.014;2023-07-20T06:42:28;3.22;;;1.50;;
75894;SDS011;64573;50.328;15.014;2023-07-20T06:44:54;1.85;;;1.30;;
75894;SDS011;64573;50.328;15.014;2023-07-20T06:47:20;3.25;;;1.52;;
75894;SDS011;64573;50.328;15.014;2023-07-20T06:49:45;2.53;;;1.40;;
75894;SDS011;64573;50.328;15.014;2023-07-20T06:52:10;3.65;;;1.58;;
75894;SDS011;64573;50.328;15.014;2023-07-20T06:54:36;4.20;;;1.30;;
75894;SDS011;64573;50.328;15.014;2023-07-20T06:57:01;1.88;;;1.25;;
75894;SDS011;64573;50.328;15.014;2023-07-20T06:59:27;1.58;;;1.40;;
75894;SDS011;64573;50.328;15.014;2023-07-20T07:01:52;3.78;;;1.50;;
75894;SDS011;64573;50.328;15.014;2023-07-20T07:04:17;2.70;;;1.33;;
75894;SDS011;64573;50.328;15.014;2023-07-20T07:06:43;1.95;;;1.30;;
75894;SDS011;64573;50.328;15.014;2023-07-20T07:09:09;2.05;;;1.40;;
75894;SDS011;64573;50.328;15.014;2023-07-20T07:11:34;2.25;;;1.52;;
75894;SDS011;64573;50.328;15.014;2023-07-20T07:13:59;2.80;;;1.50;;
75894;SDS011;64573;50.328;15.014;2023-07-20T07:16:25;2.60;;;1.60;;
75894;SDS011;64573;50.328;15.014;2023-07-20T07:18:50;3.03;;;1.52;;
75894;SDS011;64573;50.328;15.014;2023-07-20T07:21:16;2.40;;;1.42;;
75894;SDS011;64573;50.328;15.014;2023-07-20T07:23:42;2.88;;;1.50;;
75894;SDS011;64573;50.328;15.014;2023-07-20T07:26:08;2.55;;;1.40;;
75894;SDS011;64573;50.328;15.014;2023-07-20T07:28:34;3.85;;;1.50;;
75894;SDS011;64573;50.328;15.014;2023-07-20T07:30:59;3.55;;;1.40;;
75894;SDS011;64573;50.328;15.014;2023-07-20T07:33:24;2.80;;;1.35;;
75894;SDS011;64573;50.328;15.014;2023-07-20T07:35:53;3.25;;;1.60;;
75894;SDS011;64573;50.328;15.014;2023-07-20T07:38:18;3.15;;;1.70;;
75894;SDS011;64573;50.328;15.014;2023-07-20T07:40:44;3.65;;;1.58;;
75894;SDS011;64573;50.328;15.014;2023-07-20T07:43:11;1.90;;;1.40;;
75894;SDS011;64573;50.328;15.014;2023-07-20T07:45:37;3.05;;;1.60;;
75894;SDS011;64573;50.328;15.014;2023-07-20T07:48:04;3.63;;;1.58;;
75894;SDS011;64573;50.328;15.014;2023-07-20T07:50:30;5.07;;;1.70;;
75894;SDS011;64573;50.328;15.014;2023-07-20T07:52:55;3.83;;;1.58;;
75894;SDS011;64573;50.328;15.014;2023-07-20T07:55:20;2.50;;;1.27;;
75894;SDS011;64573;50.328;15.014;2023-07-20T07:57:46;1.92;;;1.35;;
75894;SDS011;64573;50.328;15.014;2023-07-20T08:00:12;2.67;;;1.55;;
75894;SDS011;64573;50.328;15.014;2023-07-20T08:02:40;1.77;;;1.60;;
75894;SDS011;64573;50.328;15.014;2023-07-20T08:05:07;1.50;;;1.20;;
75894;SDS011;64573;50.328;15.014;2023-07-20T08:07:32;2.65;;;1.40;;
75894;SDS011;64573;50.328;15.014;2023-07-20T08:09:57;2.08;;;1.50;;
75894;SDS011;64573;50.328;15.014;2023-07-20T08:12:23;3.55;;;1.38;;
75894;SDS011;64573;50.328;15.014;2023-07-20T08:14:49;2.63;;;1.48;;
75894;SDS011;64573;50.328;15.014;2023-07-20T08:17:14;4.03;;;1.40;;
75894;SDS011;64573;50.328;15.014;2023-07-20T08:19:40;2.80;;;1.60;;
75894;SDS011;64573;50.328;15.014;2023-07-20T08:22:06;4.47;;;1.38;;
75894;SDS011;64573;50.328;15.014;2023-07-20T08:24:32;1.85;;;1.40;;
75894;SDS011;64573;50.328;15.014;2023-07-20T08:26:58;1.42;;;1.05;;
75894;SDS011;64573;50.328;15.014;2023-07-20T08:29:24;1.33;;;1.08;;
75894;SDS011;64573;50.328;15.014;2023-07-20T08:31:49;1.60;;;1.05;;
75894;SDS011;64573;50.328;15.014;2023-07-20T08:34:14;1.52;;;1.20;;
75894;SDS011;64573;50.328;15.014;2023-07-20T08:36:40;1.42;;;1.00;;
75894;SDS011;64573;50.328;15.014;2023-07-20T08:39:06;3.22;;;1.67;;
75894;SDS011;64573;50.328;15.014;2023-07-20T08:41:33;2.30;;;1.20;;
75894;SDS011;64573;50.328;15.014;2023-07-20T08:43:59;3.28;;;1.20;;
75894;SDS011;64573;50.328;15.014;2023-07-20T08:46:26;2.85;;;1.20;;
75894;SDS011;64573;50.328;15.014;2023-07-20T08:48:53;1.50;;;1.30;;
75894;SDS011;64573;50.328;15.014;2023-07-20T08:51:21;1.85;;;1.25;;
75894;SDS011;64573;50.328;15.014;2023-07-20T08:53:47;2.58;;;1.10;;
75894;SDS011;64573;50.328;15.014;2023-07-20T08:56:13;1.85;;;1.10;;
75894;SDS011;64573;50.328;15.014;2023-07-20T08:58:41;2.55;;;1.17;;
75894;SDS011;64573;50.328;15.014;2023-07-20T09:01:08;2.10;;;1.27;;
75894;SDS011;64573;50.328;15.014;2023-07-20T09:03:36;2.47;;;1.17;;
75894;SDS011;64573;50.328;15.014;2023-07-20T09:06:04;2.58;;;1.13;;
75894;SDS011;64573;50.328;15.014;2023-07-20T09:08:30;2.20;;;1.30;;
75894;SDS011;64573;50.328;15.014;2023-07-20T09:10:56;1.05;;;0.90;;
75894;SDS011;64573;50.328;15.014;2023-07-20T09:13:21;2.40;;;1.30;;
75894;SDS011;64573;50.328;15.014;2023-07-20T09:15:47;1.65;;;1.10;;
75894;SDS011;64573;50.328;15.014;2023-07-20T09:18:24;3.45;;;1.25;;
75894;SDS011;64573;50.328;15.014;2023-07-20T09:20:57;3.38;;;1.20;;
75894;SDS011;64573;50.328;15.014;2023-07-20T09:23:36;6.10;;;1.38;;
75894;SDS011;64573;50.328;15.014;2023-07-20T09:26:12;1.65;;;1.17;;
75894;SDS011;64573;50.328;15.014;2023-07-20T09:28:57;1.10;;;0.82;;
75894;SDS011;64573;50.328;15.014;2023-07-20T09:31:22;1.75;;;1.30;;
75894;SDS011;64573;50.328;15.014;2023-07-20T09:33:48;2.20;;;1.20;;
75894;SDS011;64573;50.328;15.014;2023-07-20T09:36:15;3.15;;;1.38;;
75894;SDS011;64573;50.328;15.014;2023-07-20T09:38:43;1.63;;;1.25;;
75894;SDS011;64573;50.328;15.014;2023-07-20T09:41:13;2.83;;;1.30;;
75894;SDS011;64573;50.328;15.014;2023-07-20T09:43:43;2.35;;;1.30;;
75894;SDS011;64573;50.328;15.014;2023-07-20T09:46:10;2.88;;;1.50;;
75894;SDS011;64573;50.328;15.014;2023-07-20T09:48:36;3.47;;;1.20;;
75894;SDS011;64573;50.328;15.014;2023-07-20T09:51:01;2.08;;;1.40;;
75894;SDS011;64573;50.328;15.014;2023-07-20T09:53:27;1.83;;;1.55;;
75894;SDS011;64573;50.328;15.014;2023-07-20T09:55:53;3.88;;;1.52;;
75894;SDS011;64573;50.328;15.014;2023-07-20T09:58:19;2.85;;;1.73;;
75894;SDS011;64573;50.328;15.014;2023-07-20T10:00:46;2.33;;;1.50;;
75894;SDS011;64573;50.328;15.014;2023-07-20T10:03:19;1.70;;;1.52;;
75894;SDS011;64573;50.328;15.014;2023-07-20T10:05:54;2.15;;;1.52;;
75894;SDS011;64573;50.328;15.014;2023-07-20T10:08:25;2.53;;;1.58;;
75894;SDS011;64573;50.328;15.014;2023-07-20T10:10:53;1.60;;;1.50;;
75894;SDS011;64573;50.328;15.014;2023-07-20T10:13:25;2.72;;;1.63;;
75894;SDS011;64573;50.328;15.014;2023-07-20T10:16:02;1.85;;;1.50;;
75894;SDS011;64573;50.328;15.014;2023-07-20T10:21:17;3.35;;;1.90;;
75894;SDS011;64573;50.328;15.014;2023-07-20T10:23:47;2.10;;;1.90;;
75894;SDS011;64573;50.328;15.014;2023-07-20T10:26:13;2.85;;;2.40;;
75894;SDS011;64573;50.328;15.014;2023-07-20T10:28:39;2.88;;;1.55;;
75894;SDS011;64573;50.328;15.014;2023-07-20T10:31:06;3.83;;;1.95;;
75894;SDS011;64573;50.328;15.014;2023-07-20T10:33:33;2.13;;;1.70;;
75894;SDS011;64573;50.328;15.014;2023-07-20T10:36:02;1.85;;;1.73;;
75894;SDS011;64573;50.328;15.014;2023-07-20T10:38:42;2.58;;;1.50;;
75894;SDS011;64573;50.328;15.014;2023-07-20T10:41:19;2.10;;;1.60;;
75894;SDS011;64573;50.328;15.014;2023-07-20T10:43:57;1.75;;;1.65;;
75894;SDS011;64573;50.328;15.014;2023-07-20T10:46:34;2.90;;;1.83;;
75894;SDS011;64573;50.328;15.014;2023-07-20T10:49:00;4.55;;;1.48;;
75894;SDS011;64573;50.328;15.014;2023-07-20T10:51:27;1.85;;;1.42;;
75894;SDS011;64573;50.328;15.014;2023-07-20T10:53:54;7.13;;;1.83;;
75894;SDS011;64573;50.328;15.014;2023-07-20T10:56:22;3.30;;;1.50;;
75894;SDS011;64573;50.328;15.014;2023-07-20T10:58:48;3.47;;;1.70;;
75894;SDS011;64573;50.328;15.014;2023-07-20T11:01:15;2.20;;;1.75;;
75894;SDS011;64573;50.328;15.014;2023-07-20T11:03:42;3.30;;;1.70;;
75894;SDS011;64573;50.328;15.014;2023-07-20T11:09:23;2.00;;;1.65;;
75894;SDS011;64573;50.328;15.014;2023-07-20T11:11:46;3.17;;;1.80;;
75894;SDS011;64573;50.328;15.014;2023-07-20T11:14:22;2.13;;;1.35;;
75894;SDS011;64573;50.328;15.014;2023-07-20T11:16:48;2.60;;;1.52;;
75894;SDS011;64573;50.328;15.014;2023-07-20T11:19:20;1.95;;;1.50;;
75894;SDS011;64573;50.328;15.014;2023-07-20T11:21:51;1.30;;;1.13;;
75894;SDS011;64573;50.328;15.014;2023-07-20T11:24:18;2.83;;;1.70;;
75894;SDS011;64573;50.328;15.014;2023-07-20T11:26:47;3.03;;;1.40;;
75894;SDS011;64573;50.328;15.014;2023-07-20T11:29:15;1.55;;;1.45;;
75894;SDS011;64573;50.328;15.014;2023-07-20T11:31:42;1.40;;;1.27;;
75894;SDS011;64573;50.328;15.014;2023-07-20T11:34:15;1.77;;;1.20;;
75894;SDS011;64573;50.328;15.014;2023-07-20T11:36:42;3.10;;;1.60;;
75894;SDS011;64573;50.328;15.014;2023-07-20T11:39:09;3.30;;;1.35;;
75894;SDS011;64573;50.328;15.014;2023-07-20T11:41:36;1.73;;;1.45;;
75894;SDS011;64573;50.328;15.014;2023-07-20T11:44:03;1.90;;;1.40;;
75894;SDS011;64573;50.328;15.014;2023-07-20T11:46:28;2.40;;;1.30;;
75894;SDS011;64573;50.328;15.014;2023-07-20T11:48:58;2.22;;;1.40;;
75894;SDS011;64573;50.328;15.014;2023-07-20T11:51:29;2.65;;;1.38;;
75894;SDS011;64573;50.328;15.014;2023-07-20T11:53:56;2.67;;;1.20;;
75894;SDS011;64573;50.328;15.014;2023-07-20T11:56:22;2.60;;;1.30;;
75894;SDS011;64573;50.328;15.014;2023-07-20T11:58:48;2.03;;;1.40;;
75894;SDS011;64573;50.328;15.014;2023-07-20T12:01:13;1.80;;;1.40;;
75894;SDS011;64573;50.328;15.014;2023-07-20T12:03:41;2.90;;;1.60;;
75894;SDS011;64573;50.328;15.014;2023-07-20T12:06:07;2.33;;;1.65;;
75894;SDS011;64573;50.328;15.014;2023-07-20T12:08:33;2.15;;;1.48;;
75894;SDS011;64573;50.328;15.014;2023-07-20T12:10:59;1.40;;;1.30;;
75894;SDS011;64573;50.328;15.014;2023-07-20T12:13:34;2.08;;;1.60;;
75894;SDS011;64573;50.328;15.014;2023-07-20T12:16:06;2.33;;;1.50;;
75894;SDS011;64573;50.328;15.014;2023-07-20T12:18:37;2.20;;;1.40;;
75894;SDS011;64573;50.328;15.014;2023-07-20T12:21:02;2.08;;;1.30;;
75894;SDS011;64573;50.328;15.014;2023-07-20T12:23:34;2.60;;;1.50;;
75894;SDS011;64573;50.328;15.014;2023-07-20T12:26:02;1.92;;;1.60;;
75894;SDS011;64573;50.328;15.014;2023-07-20T12:28:28;2.33;;;1.60;;
75894;SDS011;64573;50.328;15.014;2023-07-20T12:30:54;1.83;;;1.20;;
75894;SDS011;64573;50.328;15.014;2023-07-20T12:33:21;2.63;;;1.40;;
75894;SDS011;64573;50.328;15.014;2023-07-20T12:35:47;1.20;;;1.10;;
75894;SDS011;64573;50.328;15.014;2023-07-20T12:38:13;3.53;;;1.40;;
75894;SDS011;64573;50.328;15.014;2023-07-20T12:40:38;1.70;;;1.20;;
75894;SDS011;64573;50.328;15.014;2023-07-20T12:43:05;1.85;;;1.30;;
75894;SDS011;64573;50.328;15.014;2023-07-20T12:45:32;2.13;;;1.30;;
75894;SDS011;64573;50.328;15.014;2023-07-20T12:47:58;1.95;;;1.17;;
75894;SDS011;64573;50.328;15.014;2023-07-20T12:50:23;3.50;;;1.20;;
75894;SDS011;64573;50.328;15.014;2023-07-20T12:52:48;1.88;;;1.13;;
75894;SDS011;64573;50.328;15.014;2023-07-20T12:55:14;3.78;;;1.20;;
75894;SDS011;64573;50.328;15.014;2023-07-20T12:57:40;2.60;;;1.13;;
75894;SDS011;64573;50.328;15.014;2023-07-20T13:00:06;1.42;;;1.00;;
75894;SDS011;64573;50.328;15.014;2023-07-20T13:02:34;1.23;;;1.08;;
75894;SDS011;64573;50.328;15.014;2023-07-20T13:04:59;1.58;;;1.23;;
75894;SDS011;64573;50.328;15.014;2023-07-20T13:07:31;1.70;;;1.20;;
75894;SDS011;64573;50.328;15.014;2023-07-20T13:12:25;2.22;;;1.10;;
75894;SDS011;64573;50.328;15.014;2023-07-20T13:14:54;16.63;;;2.05;;
75894;SDS011;64573;50.328;15.014;2023-07-20T13:17:20;1.40;;;1.10;;
75894;SDS011;64573;50.328;15.014;2023-07-20T13:19:46;4.70;;;1.23;;
75894;SDS011;64573;50.328;15.014;2023-07-20T13:22:12;1.98;;;1.30;;
75894;SDS011;64573;50.328;15.014;2023-07-20T13:24:38;5.55;;;1.75;;
75894;SDS011;64573;50.328;15.014;2023-07-20T13:27:04;4.50;;;1.73;;
75894;SDS011;64573;50.328;15.014;2023-07-20T13:29:30;9.55;;;2.10;;
75894;SDS011;64573;50.328;15.014;2023-07-20T13:31:55;11.85;;;2.85;;
75894;SDS011;64573;50.328;15.014;2023-07-20T13:34:20;3.42;;;1.80;;
75894;SDS011;64573;50.328;15.014;2023-07-20T13:36:46;2.22;;;1.98;;
75894;SDS011;64573;50.328;15.014;2023-07-20T13:39:11;1.73;;;1.63;;
75894;SDS011;64573;50.328;15.014;2023-07-20T13:41:36;2.47;;;2.03;;
75894;SDS011;64573;50.328;15.014;2023-07-20T13:44:02;2.38;;;1.80;;
75894;SDS011;64573;50.328;15.014;2023-07-20T13:46:27;1.95;;;1.35;;
75894;SDS011;64573;50.328;15.014;2023-07-20T13:48:52;2.05;;;1.40;;
75894;SDS011;64573;50.328;15.014;2023-07-20T13:51:18;2.35;;;1.30;;
75894;SDS011;64573;50.328;15.014;2023-07-20T13:53:45;2.00;;;1.20;;
75894;SDS011;64573;50.328;15.014;2023-07-20T13:56:12;3.05;;;1.30;;
75894;SDS011;64573;50.328;15.014;2023-07-20T13:58:38;2.42;;;1.40;;
75894;SDS011;64573;50.328;15.014;2023-07-20T14:01:03;3.97;;;1.30;;
75894;SDS011;64573;50.328;15.014;2023-07-20T14:03:28;6.32;;;1.60;;
75894;SDS011;64573;50.328;15.014;2023-07-20T14:05:54;5.80;;;1.60;;
75894;SDS011;64573;50.328;15.014;2023-07-20T14:08:19;2.28;;;1.70;;
75894;SDS011;64573;50.328;15.014;2023-07-20T14:10:45;2.38;;;1.50;;
75894;SDS011;64573;50.328;15.014;2023-07-20T14:13:11;2.08;;;1.60;;
75894;SDS011;64573;50.328;15.014;2023-07-20T14:15:36;2.35;;;1.50;;
75894;SDS011;64573;50.328;15.014;2023-07-20T14:18:02;3.08;;;1.13;;
75894;SDS011;64573;50.328;15.014;2023-07-20T14:20:27;2.10;;;1.40;;
75894;SDS011;64573;50.328;15.014;2023-07-20T14:22:52;1.20;;;1.10;;
75894;SDS011;64573;50.328;15.014;2023-07-20T14:25:18;1.42;;;1.05;;
75894;SDS011;64573;50.328;15.014;2023-07-20T14:27:43;2.78;;;1.30;;
75894;SDS011;64573;50.328;15.014;2023-07-20T14:30:09;2.08;;;1.20;;
75894;SDS011;64573;50.328;15.014;2023-07-20T14:32:34;1.98;;;1.30;;
75894;SDS011;64573;50.328;15.014;2023-07-20T14:35:00;2.38;;;1.25;;
75894;SDS011;64573;50.328;15.014;2023-07-20T14:37:25;1.30;;;1.10;;
75894;SDS011;64573;50.328;15.014;2023-07-20T14:39:51;2.58;;;1.08;;
75894;SDS011;64573;50.328;15.014;2023-07-20T14:42:16;3.40;;;1.27;;
75894;SDS011;64573;50.328;15.014;2023-07-20T14:44:43;2.08;;;1.40;;
75894;SDS011;64573;50.328;15.014;2023-07-20T14:47:08;3.10;;;1.13;;
75894;SDS011;64573;50.328;15.014;2023-07-20T14:49:33;2.47;;;0.95;;